sensor_id;sensor_type;location;lat;lon;timestamp;P1;durP1;ratioP1;P2;durP2;ratioP2
61034;SDS011;46916;40.564;-7.958;2023-03-21T00:00:25;1.00;;;0.93;;
61034;SDS011;46916;40.564;-7.958;2023-03-21T00:02:26;1.10;;;1.02;;
61034;SDS011;46916;40.564;-7.958;2023-03-21T00:04:26;0.60;;;0.60;;
61034;SDS011;46916;40.564;-7.958;2023-03-21T00:06:27;0.60;;;0.60;;
61034;SDS011;46916;40.564;-7.958;2023-03-21T00:08:28;1.25;;;1.25;;
61034;SDS011;46916;40.564;-7.958;2023-03-21T00:10:28;1.15;;;0.80;;
61034;SDS011;46916;40.564;-7.958;2023-03-21T00:12:29;1.40;;;1.27;;
61034;SDS011;46916;40.564;-7.958;2023-03-21T00:14:31;6.32;;;1.95;;
61034;SDS011;46916;40.564;-7.958;2023-03-21T00:16:32;0.73;;;0.73;;
61034;SDS011;46916;40.564;-7.958;2023-03-21T00:18:34;0.95;;;0.93;;
61034;SDS011;46916;40.564;-7.958;2023-03-21T00:20:36;0.32;;;0.32;;
61034;SDS011;46916;40.564;-7.958;2023-03-21T00:22:36;0.47;;;0.47;;
61034;SDS011;46916;40.564;-7.958;2023-03-21T00:24:37;1.48;;;1.15;;
61034;SDS011;46916;40.564;-7.958;2023-03-21T00:26:38;0.50;;;0.50;;
61034;SDS011;46916;40.564;-7.958;2023-03-21T00:28:39;0.75;;;0.73;;
61034;SDS011;46916;40.564;-7.958;2023-03-21T00:30:41;0.70;;;0.50;;
61034;SDS011;46916;40.564;-7.958;2023-03-21T00:32:41;0.50;;;0.50;;
61034;SDS011;46916;40.564;-7.958;2023-03-21T00:34:42;1.35;;;1.30;;
61034;SDS011;46916;40.564;-7.958;2023-03-21T00:36:43;0.40;;;0.40;;
61034;SDS011;46916;40.564;-7.958;2023-03-21T00:38:44;0.70;;;0.65;;
61034;SDS011;46916;40.564;-7.958;2023-03-21T00:40:45;0.47;;;0.47;;
61034;SDS011;46916;40.564;-7.958;2023-03-21T00:42:46;0.60;;;0.57;;
61034;SDS011;46916;40.564;-7.958;2023-03-21T00:44:47;0.40;;;0.40;;
61034;SDS011;46916;40.564;-7.958;2023-03-21T00:46:47;0.63;;;0.63;;
61034;SDS011;46916;40.564;-7.958;2023-03-21T00:48:48;0.35;;;0.35;;
61034;SDS011;46916;40.564;-7.958;2023-03-21T00:50:49;0.93;;;0.85;;
61034;SDS011;46916;40.564;-7.958;2023-03-21T00:52:51;0.70;;;0.70;;
61034;SDS011;46916;40.564;-7.958;2023-03-21T00:54:52;2.67;;;2.33;;
61034;SDS011;46916;40.564;-7.958;2023-03-21T00:56:53;2.50;;;1.48;;
61034;SDS011;46916;40.564;-7.958;2023-03-21T00:58:53;0.90;;;0.85;;
61034;SDS011;46916;40.564;-7.958;2023-03-21T01:00:54;0.50;;;0.50;;
61034;SDS011;46916;40.564;-7.958;2023-03-21T01:02:55;0.50;;;0.50;;
61034;SDS011;46916;40.564;-7.958;2023-03-21T01:04:55;0.88;;;0.88;;
61034;SDS011;46916;40.564;-7.958;2023-03-21T01:06:56;1.25;;;1.13;;
61034;SDS011;46916;40.564;-7.958;2023-03-21T01:08:57;0.85;;;0.82;;
61034;SDS011;46916;40.564;-7.958;2023-03-21T01:11:00;0.55;;;0.55;;
61034;SDS011;46916;40.564;-7.958;2023-03-21T01:13:05;0.43;;;0.43;;
61034;SDS011;46916;40.564;-7.958;2023-03-21T01:15:06;0.40;;;0.40;;
61034;SDS011;46916;40.564;-7.958;2023-03-21T01:17:06;3.75;;;1.15;;
61034;SDS011;46916;40.564;-7.958;2023-03-21T01:19:09;1.00;;;0.82;;
61034;SDS011;46916;40.564;-7.958;2023-03-21T01:21:12;0.52;;;0.52;;
61034;SDS011;46916;40.564;-7.958;2023-03-21T01:23:14;1.20;;;1.20;;
61034;SDS011;46916;40.564;-7.958;2023-03-21T01:25:15;0.30;;;0.30;;
61034;SDS011;46916;40.564;-7.958;2023-03-21T01:27:16;1.63;;;1.52;;
61034;SDS011;46916;40.564;-7.958;2023-03-21T01:29:17;0.77;;;0.77;;
61034;SDS011;46916;40.564;-7.958;2023-03-21T01:31:18;1.67;;;1.55;;
61034;SDS011;46916;40.564;-7.958;2023-03-21T01:33:19;0.70;;;0.70;;
61034;SDS011;46916;40.564;-7.958;2023-03-21T01:35:20;0.93;;;0.93;;
61034;SDS011;46916;40.564;-7.958;2023-03-21T01:37:22;1.50;;;1.40;;
61034;SDS011;46916;40.564;-7.958;2023-03-21T01:39:25;0.50;;;0.50;;
61034;SDS011;46916;40.564;-7.958;2023-03-21T01:41:27;1.45;;;1.00;;
61034;SDS011;46916;40.564;-7.958;2023-03-21T01:43:34;1.73;;;1.40;;
61034;SDS011;46916;40.564;-7.958;2023-03-21T01:48:30;0.47;;;0.47;;
61034;SDS011;46916;40.564;-7.958;2023-03-21T01:50:33;0.45;;;0.45;;
61034;SDS011;46916;40.564;-7.958;2023-03-21T01:52:49;0.90;;;0.70;;
61034;SDS011;46916;40.564;-7.958;2023-03-21T01:54:57;0.50;;;0.50;;
61034;SDS011;46916;40.564;-7.958;2023-03-21T01:57:00;1.83;;;0.95;;
61034;SDS011;46916;40.564;-7.958;2023-03-21T01:59:10;1.40;;;1.30;;
61034;SDS011;46916;40.564;-7.958;2023-03-21T02:01:41;0.47;;;0.38;;
61034;SDS011;46916;40.564;-7.958;2023-03-21T02:03:45;0.40;;;0.40;;
61034;SDS011;46916;40.564;-7.958;2023-03-21T02:08:27;0.90;;;0.90;;
61034;SDS011;46916;40.564;-7.958;2023-03-21T02:10:30;1.08;;;0.68;;
61034;SDS011;46916;40.564;-7.958;2023-03-21T02:12:33;0.68;;;0.68;;
61034;SDS011;46916;40.564;-7.958;2023-03-21T02:14:36;1.27;;;1.15;;
61034;SDS011;46916;40.564;-7.958;2023-03-21T02:17:01;0.88;;;0.85;;
61034;SDS011;46916;40.564;-7.958;2023-03-21T02:28:35;1.10;;;1.02;;
61034;SDS011;46916;40.564;-7.958;2023-03-21T02:33:21;0.85;;;0.85;;
61034;SDS011;46916;40.564;-7.958;2023-03-21T02:35:51;0.95;;;0.65;;
61034;SDS011;46916;40.564;-7.958;2023-03-21T02:38:20;0.63;;;0.63;;
61034;SDS011;46916;40.564;-7.958;2023-03-21T02:40:35;0.22;;;0.22;;
61034;SDS011;46916;40.564;-7.958;2023-03-21T02:45:09;2.63;;;1.08;;
61034;SDS011;46916;40.564;-7.958;2023-03-21T02:47:41;2.08;;;1.35;;
61034;SDS011;46916;40.564;-7.958;2023-03-21T02:49:57;0.68;;;0.68;;
61034;SDS011;46916;40.564;-7.958;2023-03-21T02:52:12;0.52;;;0.52;;
61034;SDS011;46916;40.564;-7.958;2023-03-21T02:54:18;0.30;;;0.30;;
61034;SDS011;46916;40.564;-7.958;2023-03-21T02:56:23;0.73;;;0.73;;
61034;SDS011;46916;40.564;-7.958;2023-03-21T02:58:29;0.40;;;0.40;;
61034;SDS011;46916;40.564;-7.958;2023-03-21T03:00:32;0.45;;;0.45;;
61034;SDS011;46916;40.564;-7.958;2023-03-21T03:02:37;1.75;;;1.65;;
61034;SDS011;46916;40.564;-7.958;2023-03-21T03:04:41;0.85;;;0.85;;
61034;SDS011;46916;40.564;-7.958;2023-03-21T03:07:07;1.65;;;1.17;;
61034;SDS011;46916;40.564;-7.958;2023-03-21T03:11:23;0.30;;;0.30;;
61034;SDS011;46916;40.564;-7.958;2023-03-21T03:21:13;0.60;;;0.60;;
61034;SDS011;46916;40.564;-7.958;2023-03-21T03:23:30;1.10;;;0.43;;
61034;SDS011;46916;40.564;-7.958;2023-03-21T03:25:53;0.60;;;0.60;;
61034;SDS011;46916;40.564;-7.958;2023-03-21T03:28:20;0.20;;;0.20;;
61034;SDS011;46916;40.564;-7.958;2023-03-21T03:30:25;0.73;;;0.68;;
61034;SDS011;46916;40.564;-7.958;2023-03-21T03:32:30;0.85;;;0.85;;
61034;SDS011;46916;40.564;-7.958;2023-03-21T03:34:37;1.17;;;1.17;;
61034;SDS011;46916;40.564;-7.958;2023-03-21T03:36:44;0.20;;;0.20;;
61034;SDS011;46916;40.564;-7.958;2023-03-21T03:38:50;0.20;;;0.20;;
61034;SDS011;46916;40.564;-7.958;2023-03-21T03:41:00;1.10;;;0.85;;
61034;SDS011;46916;40.564;-7.958;2023-03-21T03:43:28;0.20;;;0.20;;
61034;SDS011;46916;40.564;-7.958;2023-03-21T03:45:36;0.20;;;0.20;;
61034;SDS011;46916;40.564;-7.958;2023-03-21T03:47:52;0.77;;;0.77;;
61034;SDS011;46916;40.564;-7.958;2023-03-21T03:52:54;0.32;;;0.32;;
61034;SDS011;46916;40.564;-7.958;2023-03-21T03:55:02;0.75;;;0.75;;
61034;SDS011;46916;40.564;-7.958;2023-03-21T03:57:07;1.05;;;1.00;;
61034;SDS011;46916;40.564;-7.958;2023-03-21T03:59:11;1.05;;;0.90;;
61034;SDS011;46916;40.564;-7.958;2023-03-21T04:01:38;0.30;;;0.30;;
61034;SDS011;46916;40.564;-7.958;2023-03-21T04:03:40;0.57;;;0.57;;
61034;SDS011;46916;40.564;-7.958;2023-03-21T04:05:44;0.65;;;0.65;;
61034;SDS011;46916;40.564;-7.958;2023-03-21T04:09:59;0.52;;;0.52;;
61034;SDS011;46916;40.564;-7.958;2023-03-21T04:12:01;0.35;;;0.35;;
61034;SDS011;46916;40.564;-7.958;2023-03-21T04:14:03;0.88;;;0.85;;
61034;SDS011;46916;40.564;-7.958;2023-03-21T04:16:04;1.00;;;0.98;;
61034;SDS011;46916;40.564;-7.958;2023-03-21T04:18:05;0.10;;;0.10;;
61034;SDS011;46916;40.564;-7.958;2023-03-21T04:20:06;0.57;;;0.57;;
61034;SDS011;46916;40.564;-7.958;2023-03-21T04:22:08;0.63;;;0.52;;
61034;SDS011;46916;40.564;-7.958;2023-03-21T04:24:13;1.25;;;0.60;;
61034;SDS011;46916;40.564;-7.958;2023-03-21T04:26:16;3.63;;;1.23;;
61034;SDS011;46916;40.564;-7.958;2023-03-21T04:28:26;0.20;;;0.20;;
61034;SDS011;46916;40.564;-7.958;2023-03-21T04:30:46;1.15;;;1.10;;
61034;SDS011;46916;40.564;-7.958;2023-03-21T04:32:51;0.52;;;0.52;;
61034;SDS011;46916;40.564;-7.958;2023-03-21T04:34:57;0.52;;;0.52;;
61034;SDS011;46916;40.564;-7.958;2023-03-21T04:36:58;0.28;;;0.28;;
61034;SDS011;46916;40.564;-7.958;2023-03-21T04:38:59;0.22;;;0.22;;
61034;SDS011;46916;40.564;-7.958;2023-03-21T04:41:00;0.30;;;0.30;;
61034;SDS011;46916;40.564;-7.958;2023-03-21T04:43:03;0.40;;;0.40;;
61034;SDS011;46916;40.564;-7.958;2023-03-21T04:45:04;0.50;;;0.50;;
61034;SDS011;46916;40.564;-7.958;2023-03-21T04:47:06;0.52;;;0.52;;
61034;SDS011;46916;40.564;-7.958;2023-03-21T04:49:07;0.25;;;0.25;;
61034;SDS011;46916;40.564;-7.958;2023-03-21T04:51:09;3.30;;;1.25;;
61034;SDS011;46916;40.564;-7.958;2023-03-21T04:53:10;0.57;;;0.57;;
61034;SDS011;46916;40.564;-7.958;2023-03-21T04:55:11;0.45;;;0.45;;
61034;SDS011;46916;40.564;-7.958;2023-03-21T04:57:12;0.55;;;0.47;;
61034;SDS011;46916;40.564;-7.958;2023-03-21T04:59:14;0.80;;;0.80;;
61034;SDS011;46916;40.564;-7.958;2023-03-21T05:01:15;1.05;;;0.68;;
61034;SDS011;46916;40.564;-7.958;2023-03-21T05:03:19;1.17;;;1.02;;
61034;SDS011;46916;40.564;-7.958;2023-03-21T05:05:21;1.00;;;0.50;;
61034;SDS011;46916;40.564;-7.958;2023-03-21T05:07:24;0.20;;;0.20;;
61034;SDS011;46916;40.564;-7.958;2023-03-21T05:09:26;0.80;;;0.57;;
61034;SDS011;46916;40.564;-7.958;2023-03-21T05:11:27;0.30;;;0.30;;
61034;SDS011;46916;40.564;-7.958;2023-03-21T05:13:32;1.13;;;1.13;;
61034;SDS011;46916;40.564;-7.958;2023-03-21T05:15:33;0.70;;;0.70;;
61034;SDS011;46916;40.564;-7.958;2023-03-21T05:17:33;0.68;;;0.68;;
61034;SDS011;46916;40.564;-7.958;2023-03-21T05:19:35;0.85;;;0.85;;
61034;SDS011;46916;40.564;-7.958;2023-03-21T05:21:36;0.55;;;0.55;;
61034;SDS011;46916;40.564;-7.958;2023-03-21T05:23:45;0.20;;;0.20;;
61034;SDS011;46916;40.564;-7.958;2023-03-21T05:25:53;6.80;;;1.48;;
61034;SDS011;46916;40.564;-7.958;2023-03-21T05:28:14;1.55;;;1.38;;
61034;SDS011;46916;40.564;-7.958;2023-03-21T05:30:18;0.20;;;0.20;;
61034;SDS011;46916;40.564;-7.958;2023-03-21T05:32:22;0.52;;;0.52;;
61034;SDS011;46916;40.564;-7.958;2023-03-21T05:34:23;1.05;;;0.98;;
61034;SDS011;46916;40.564;-7.958;2023-03-21T05:36:24;0.70;;;0.70;;
61034;SDS011;46916;40.564;-7.958;2023-03-21T05:38:24;0.13;;;0.13;;
61034;SDS011;46916;40.564;-7.958;2023-03-21T05:40:27;0.32;;;0.32;;
61034;SDS011;46916;40.564;-7.958;2023-03-21T05:42:31;0.45;;;0.45;;
61034;SDS011;46916;40.564;-7.958;2023-03-21T05:44:32;0.38;;;0.38;;
61034;SDS011;46916;40.564;-7.958;2023-03-21T05:46:35;1.73;;;0.45;;
61034;SDS011;46916;40.564;-7.958;2023-03-21T05:48:36;0.50;;;0.50;;
61034;SDS011;46916;40.564;-7.958;2023-03-21T05:50:48;0.90;;;0.90;;
61034;SDS011;46916;40.564;-7.958;2023-03-21T05:52:52;2.03;;;1.92;;
61034;SDS011;46916;40.564;-7.958;2023-03-21T05:54:53;1.27;;;1.17;;
61034;SDS011;46916;40.564;-7.958;2023-03-21T05:56:57;1.10;;;0.90;;
61034;SDS011;46916;40.564;-7.958;2023-03-21T05:59:20;0.20;;;0.20;;
61034;SDS011;46916;40.564;-7.958;2023-03-21T06:01:24;0.25;;;0.25;;
61034;SDS011;46916;40.564;-7.958;2023-03-21T06:03:33;0.32;;;0.32;;
61034;SDS011;46916;40.564;-7.958;2023-03-21T06:05:38;2.05;;;1.50;;
61034;SDS011;46916;40.564;-7.958;2023-03-21T06:07:44;0.38;;;0.38;;
61034;SDS011;46916;40.564;-7.958;2023-03-21T06:09:45;0.60;;;0.60;;
61034;SDS011;46916;40.564;-7.958;2023-03-21T06:11:47;2.65;;;2.45;;
61034;SDS011;46916;40.564;-7.958;2023-03-21T06:14:01;0.50;;;0.50;;
61034;SDS011;46916;40.564;-7.958;2023-03-21T06:16:01;1.20;;;1.20;;
61034;SDS011;46916;40.564;-7.958;2023-03-21T06:20:08;1.40;;;0.90;;
61034;SDS011;46916;40.564;-7.958;2023-03-21T06:22:16;2.03;;;1.92;;
61034;SDS011;46916;40.564;-7.958;2023-03-21T06:24:16;1.38;;;1.27;;
61034;SDS011;46916;40.564;-7.958;2023-03-21T06:26:17;1.20;;;1.20;;
61034;SDS011;46916;40.564;-7.958;2023-03-21T06:28:22;0.50;;;0.50;;
61034;SDS011;46916;40.564;-7.958;2023-03-21T06:30:23;2.75;;;0.57;;
61034;SDS011;46916;40.564;-7.958;2023-03-21T06:32:39;3.30;;;1.08;;
61034;SDS011;46916;40.564;-7.958;2023-03-21T06:34:44;1.85;;;1.75;;
61034;SDS011;46916;40.564;-7.958;2023-03-21T06:36:48;1.40;;;1.33;;
61034;SDS011;46916;40.564;-7.958;2023-03-21T06:38:54;3.28;;;1.15;;
61034;SDS011;46916;40.564;-7.958;2023-03-21T06:40:54;1.02;;;0.88;;
61034;SDS011;46916;40.564;-7.958;2023-03-21T06:42:57;4.10;;;2.63;;
61034;SDS011;46916;40.564;-7.958;2023-03-21T06:44:58;3.30;;;2.42;;
61034;SDS011;46916;40.564;-7.958;2023-03-21T06:47:00;1.77;;;1.05;;
61034;SDS011;46916;40.564;-7.958;2023-03-21T06:49:01;2.53;;;1.65;;
61034;SDS011;46916;40.564;-7.958;2023-03-21T06:51:03;1.52;;;1.33;;
61034;SDS011;46916;40.564;-7.958;2023-03-21T06:53:05;7.03;;;1.38;;
61034;SDS011;46916;40.564;-7.958;2023-03-21T06:55:19;1.67;;;1.58;;
61034;SDS011;46916;40.564;-7.958;2023-03-21T06:57:26;1.80;;;1.55;;
61034;SDS011;46916;40.564;-7.958;2023-03-21T06:59:26;2.53;;;2.33;;
61034;SDS011;46916;40.564;-7.958;2023-03-21T07:01:36;0.73;;;0.73;;
61034;SDS011;46916;40.564;-7.958;2023-03-21T07:03:40;2.63;;;1.45;;
61034;SDS011;46916;40.564;-7.958;2023-03-21T07:05:41;0.70;;;0.70;;
61034;SDS011;46916;40.564;-7.958;2023-03-21T07:07:42;3.28;;;2.22;;
61034;SDS011;46916;40.564;-7.958;2023-03-21T07:09:43;0.60;;;0.60;;
61034;SDS011;46916;40.564;-7.958;2023-03-21T07:11:44;2.20;;;2.10;;
61034;SDS011;46916;40.564;-7.958;2023-03-21T07:13:45;2.95;;;2.03;;
61034;SDS011;46916;40.564;-7.958;2023-03-21T07:15:48;0.63;;;0.63;;
61034;SDS011;46916;40.564;-7.958;2023-03-21T07:17:48;0.68;;;0.68;;
61034;SDS011;46916;40.564;-7.958;2023-03-21T07:19:49;1.58;;;1.48;;
61034;SDS011;46916;40.564;-7.958;2023-03-21T07:21:52;3.28;;;2.08;;
61034;SDS011;46916;40.564;-7.958;2023-03-21T07:23:52;1.77;;;1.15;;
61034;SDS011;46916;40.564;-7.958;2023-03-21T07:25:53;0.70;;;0.70;;
61034;SDS011;46916;40.564;-7.958;2023-03-21T07:27:54;1.45;;;1.35;;
61034;SDS011;46916;40.564;-7.958;2023-03-21T07:29:56;2.65;;;1.48;;
61034;SDS011;46916;40.564;-7.958;2023-03-21T07:31:56;2.45;;;2.10;;
61034;SDS011;46916;40.564;-7.958;2023-03-21T07:33:57;3.25;;;2.40;;
61034;SDS011;46916;40.564;-7.958;2023-03-21T07:35:58;0.68;;;0.68;;
61034;SDS011;46916;40.564;-7.958;2023-03-21T07:37:59;0.65;;;0.65;;
61034;SDS011;46916;40.564;-7.958;2023-03-21T07:40:00;1.35;;;1.23;;
61034;SDS011;46916;40.564;-7.958;2023-03-21T07:42:01;0.40;;;0.40;;
61034;SDS011;46916;40.564;-7.958;2023-03-21T07:44:11;0.98;;;0.95;;
61034;SDS011;46916;40.564;-7.958;2023-03-21T07:46:11;1.38;;;1.30;;
61034;SDS011;46916;40.564;-7.958;2023-03-21T07:48:12;1.27;;;1.20;;
61034;SDS011;46916;40.564;-7.958;2023-03-21T07:50:14;1.45;;;0.93;;
61034;SDS011;46916;40.564;-7.958;2023-03-21T07:52:15;9.05;;;2.42;;
61034;SDS011;46916;40.564;-7.958;2023-03-21T07:54:15;1.63;;;1.45;;
61034;SDS011;46916;40.564;-7.958;2023-03-21T07:56:18;1.10;;;1.10;;
61034;SDS011;46916;40.564;-7.958;2023-03-21T07:58:19;0.90;;;0.90;;
61034;SDS011;46916;40.564;-7.958;2023-03-21T08:00:20;1.40;;;1.25;;
61034;SDS011;46916;40.564;-7.958;2023-03-21T08:02:23;0.63;;;0.63;;
61034;SDS011;46916;40.564;-7.958;2023-03-21T08:04:24;6.18;;;2.58;;
61034;SDS011;46916;40.564;-7.958;2023-03-21T08:06:26;1.77;;;1.02;;
61034;SDS011;46916;40.564;-7.958;2023-03-21T08:08:28;0.88;;;0.88;;
61034;SDS011;46916;40.564;-7.958;2023-03-21T08:10:28;1.00;;;1.00;;
61034;SDS011;46916;40.564;-7.958;2023-03-21T08:12:29;3.60;;;2.25;;
61034;SDS011;46916;40.564;-7.958;2023-03-21T08:14:31;1.55;;;1.45;;
61034;SDS011;46916;40.564;-7.958;2023-03-21T08:16:33;3.03;;;2.53;;
61034;SDS011;46916;40.564;-7.958;2023-03-21T08:18:33;0.68;;;0.68;;
61034;SDS011;46916;40.564;-7.958;2023-03-21T08:20:34;1.00;;;1.00;;
61034;SDS011;46916;40.564;-7.958;2023-03-21T08:22:35;1.30;;;1.27;;
61034;SDS011;46916;40.564;-7.958;2023-03-21T08:24:36;1.35;;;1.25;;
61034;SDS011;46916;40.564;-7.958;2023-03-21T08:26:36;2.17;;;1.95;;
61034;SDS011;46916;40.564;-7.958;2023-03-21T08:28:37;1.13;;;1.10;;
61034;SDS011;46916;40.564;-7.958;2023-03-21T08:30:38;1.92;;;1.83;;
61034;SDS011;46916;40.564;-7.958;2023-03-21T08:32:39;0.68;;;0.68;;
61034;SDS011;46916;40.564;-7.958;2023-03-21T08:34:41;0.95;;;0.95;;
61034;SDS011;46916;40.564;-7.958;2023-03-21T08:36:42;3.45;;;3.00;;
61034;SDS011;46916;40.564;-7.958;2023-03-21T08:38:42;2.10;;;1.70;;
61034;SDS011;46916;40.564;-7.958;2023-03-21T08:40:45;0.30;;;0.30;;
61034;SDS011;46916;40.564;-7.958;2023-03-21T08:42:45;2.22;;;2.08;;
61034;SDS011;46916;40.564;-7.958;2023-03-21T08:44:46;2.17;;;2.05;;
61034;SDS011;46916;40.564;-7.958;2023-03-21T08:46:47;0.82;;;0.82;;
61034;SDS011;46916;40.564;-7.958;2023-03-21T08:48:51;1.40;;;1.30;;
61034;SDS011;46916;40.564;-7.958;2023-03-21T08:50:55;1.35;;;1.25;;
61034;SDS011;46916;40.564;-7.958;2023-03-21T08:52:55;0.57;;;0.57;;
61034;SDS011;46916;40.564;-7.958;2023-03-21T08:54:56;1.95;;;1.75;;
61034;SDS011;46916;40.564;-7.958;2023-03-21T08:56:57;2.40;;;2.10;;
61034;SDS011;46916;40.564;-7.958;2023-03-21T08:58:58;1.80;;;1.58;;
61034;SDS011;46916;40.564;-7.958;2023-03-21T09:03:03;1.20;;;0.98;;
61034;SDS011;46916;40.564;-7.958;2023-03-21T09:05:04;1.70;;;1.60;;
61034;SDS011;46916;40.564;-7.958;2023-03-21T09:07:05;1.50;;;1.40;;
61034;SDS011;46916;40.564;-7.958;2023-03-21T09:09:06;3.50;;;3.20;;
61034;SDS011;46916;40.564;-7.958;2023-03-21T09:11:08;1.88;;;1.77;;
61034;SDS011;46916;40.564;-7.958;2023-03-21T09:13:10;1.48;;;1.38;;
61034;SDS011;46916;40.564;-7.958;2023-03-21T09:15:10;1.50;;;1.30;;
61034;SDS011;46916;40.564;-7.958;2023-03-21T09:17:11;5.60;;;4.63;;
61034;SDS011;46916;40.564;-7.958;2023-03-21T09:19:12;5.55;;;4.15;;
61034;SDS011;46916;40.564;-7.958;2023-03-21T09:21:15;17.85;;;2.70;;
61034;SDS011;46916;40.564;-7.958;2023-03-21T09:23:19;1.05;;;1.05;;
61034;SDS011;46916;40.564;-7.958;2023-03-21T09:25:21;2.03;;;1.80;;
61034;SDS011;46916;40.564;-7.958;2023-03-21T09:27:22;2.58;;;2.17;;
61034;SDS011;46916;40.564;-7.958;2023-03-21T09:29:26;5.45;;;2.72;;
61034;SDS011;46916;40.564;-7.958;2023-03-21T09:31:26;2.67;;;1.45;;
61034;SDS011;46916;40.564;-7.958;2023-03-21T09:33:27;5.88;;;3.67;;
61034;SDS011;46916;40.564;-7.958;2023-03-21T09:35:29;2.13;;;2.03;;
61034;SDS011;46916;40.564;-7.958;2023-03-21T09:37:30;9.13;;;5.35;;
61034;SDS011;46916;40.564;-7.958;2023-03-21T09:39:32;3.75;;;2.78;;
61034;SDS011;46916;40.564;-7.958;2023-03-21T09:50:39;4.05;;;3.50;;
61034;SDS011;46916;40.564;-7.958;2023-03-21T09:52:54;17.60;;;3.95;;
61034;SDS011;46916;40.564;-7.958;2023-03-21T09:54:57;7.97;;;4.35;;
61034;SDS011;46916;40.564;-7.958;2023-03-21T09:57:00;3.10;;;2.83;;
61034;SDS011;46916;40.564;-7.958;2023-03-21T09:59:18;16.63;;;3.55;;
61034;SDS011;46916;40.564;-7.958;2023-03-21T10:01:25;2.50;;;2.10;;
61034;SDS011;46916;40.564;-7.958;2023-03-21T10:03:30;7.07;;;4.07;;
61034;SDS011;46916;40.564;-7.958;2023-03-21T10:05:35;15.02;;;6.85;;
61034;SDS011;46916;40.564;-7.958;2023-03-21T10:09:44;4.75;;;2.65;;
61034;SDS011;46916;40.564;-7.958;2023-03-21T10:11:50;9.68;;;4.60;;
61034;SDS011;46916;40.564;-7.958;2023-03-21T10:13:59;7.25;;;5.30;;
61034;SDS011;46916;40.564;-7.958;2023-03-21T10:16:15;2.50;;;1.65;;
61034;SDS011;46916;40.564;-7.958;2023-03-21T10:18:27;2.72;;;2.55;;
61034;SDS011;46916;40.564;-7.958;2023-03-21T10:22:36;2.22;;;2.03;;
61034;SDS011;46916;40.564;-7.958;2023-03-21T10:24:37;4.50;;;3.47;;
61034;SDS011;46916;40.564;-7.958;2023-03-21T10:26:38;9.55;;;4.95;;
61034;SDS011;46916;40.564;-7.958;2023-03-21T10:28:39;11.32;;;4.13;;
61034;SDS011;46916;40.564;-7.958;2023-03-21T10:30:48;7.32;;;2.15;;
61034;SDS011;46916;40.564;-7.958;2023-03-21T10:32:58;3.80;;;3.45;;
61034;SDS011;46916;40.564;-7.958;2023-03-21T10:35:04;9.55;;;4.55;;
61034;SDS011;46916;40.564;-7.958;2023-03-21T10:37:05;12.15;;;7.90;;
61034;SDS011;46916;40.564;-7.958;2023-03-21T10:39:30;6.80;;;4.40;;
61034;SDS011;46916;40.564;-7.958;2023-03-21T10:41:33;5.68;;;4.43;;
61034;SDS011;46916;40.564;-7.958;2023-03-21T10:43:35;4.13;;;3.70;;
61034;SDS011;46916;40.564;-7.958;2023-03-21T10:45:37;6.20;;;3.40;;
61034;SDS011;46916;40.564;-7.958;2023-03-21T10:47:37;30.88;;;4.13;;
61034;SDS011;46916;40.564;-7.958;2023-03-21T10:49:38;6.22;;;4.97;;
61034;SDS011;46916;40.564;-7.958;2023-03-21T10:51:39;10.02;;;2.50;;
61034;SDS011;46916;40.564;-7.958;2023-03-21T10:53:40;8.55;;;3.95;;
61034;SDS011;46916;40.564;-7.958;2023-03-21T10:55:47;8.02;;;2.97;;
61034;SDS011;46916;40.564;-7.958;2023-03-21T10:57:52;2.90;;;2.47;;
61034;SDS011;46916;40.564;-7.958;2023-03-21T10:59:58;3.60;;;2.60;;
61034;SDS011;46916;40.564;-7.958;2023-03-21T11:02:01;6.32;;;2.65;;
61034;SDS011;46916;40.564;-7.958;2023-03-21T11:04:23;2.75;;;2.50;;
61034;SDS011;46916;40.564;-7.958;2023-03-21T11:06:28;1.25;;;1.15;;
61034;SDS011;46916;40.564;-7.958;2023-03-21T11:08:36;1.65;;;1.55;;
61034;SDS011;46916;40.564;-7.958;2023-03-21T11:10:58;2.92;;;2.72;;
61034;SDS011;46916;40.564;-7.958;2023-03-21T11:13:03;8.32;;;2.92;;
61034;SDS011;46916;40.564;-7.958;2023-03-21T11:15:20;4.35;;;2.72;;
61034;SDS011;46916;40.564;-7.958;2023-03-21T11:17:28;2.20;;;1.98;;
61034;SDS011;46916;40.564;-7.958;2023-03-21T11:19:34;2.05;;;1.33;;
61034;SDS011;46916;40.564;-7.958;2023-03-21T11:21:36;3.22;;;2.35;;
61034;SDS011;46916;40.564;-7.958;2023-03-21T11:23:41;1.60;;;1.50;;
61034;SDS011;46916;40.564;-7.958;2023-03-21T11:25:49;3.88;;;3.08;;
61034;SDS011;46916;40.564;-7.958;2023-03-21T11:27:53;2.13;;;1.92;;
61034;SDS011;46916;40.564;-7.958;2023-03-21T11:29:55;0.45;;;0.45;;
61034;SDS011;46916;40.564;-7.958;2023-03-21T11:32:00;2.33;;;1.40;;
61034;SDS011;46916;40.564;-7.958;2023-03-21T11:34:19;4.82;;;2.55;;
61034;SDS011;46916;40.564;-7.958;2023-03-21T11:36:31;2.17;;;1.30;;
61034;SDS011;46916;40.564;-7.958;2023-03-21T11:38:36;1.23;;;1.13;;
61034;SDS011;46916;40.564;-7.958;2023-03-21T11:40:39;1.73;;;1.45;;
61034;SDS011;46916;40.564;-7.958;2023-03-21T11:42:53;0.63;;;0.63;;
61034;SDS011;46916;40.564;-7.958;2023-03-21T11:44:57;3.33;;;1.35;;
61034;SDS011;46916;40.564;-7.958;2023-03-21T11:47:01;9.48;;;1.88;;
61034;SDS011;46916;40.564;-7.958;2023-03-21T11:49:02;0.30;;;0.30;;
61034;SDS011;46916;40.564;-7.958;2023-03-21T11:51:05;2.45;;;2.00;;
61034;SDS011;46916;40.564;-7.958;2023-03-21T11:55:30;2.03;;;1.60;;
61034;SDS011;46916;40.564;-7.958;2023-03-21T12:00:02;1.23;;;1.15;;
61034;SDS011;46916;40.564;-7.958;2023-03-21T12:04:38;1.08;;;0.98;;
61034;SDS011;46916;40.564;-7.958;2023-03-21T12:09:10;2.03;;;1.02;;
61034;SDS011;46916;40.564;-7.958;2023-03-21T12:23:20;0.88;;;0.73;;
61034;SDS011;46916;40.564;-7.958;2023-03-21T12:28:14;1.10;;;0.63;;
61034;SDS011;46916;40.564;-7.958;2023-03-21T12:39:54;1.25;;;1.05;;
61034;SDS011;46916;40.564;-7.958;2023-03-21T12:44:23;3.58;;;2.20;;
61034;SDS011;46916;40.564;-7.958;2023-03-21T12:46:33;0.98;;;0.70;;
61034;SDS011;46916;40.564;-7.958;2023-03-21T12:50:55;0.22;;;0.22;;
61034;SDS011;46916;40.564;-7.958;2023-03-21T12:53:13;0.60;;;0.60;;
61034;SDS011;46916;40.564;-7.958;2023-03-21T12:55:31;0.47;;;0.47;;
61034;SDS011;46916;40.564;-7.958;2023-03-21T12:57:34;0.20;;;0.20;;
61034;SDS011;46916;40.564;-7.958;2023-03-21T12:59:43;0.30;;;0.30;;
61034;SDS011;46916;40.564;-7.958;2023-03-21T13:01:46;0.30;;;0.30;;
61034;SDS011;46916;40.564;-7.958;2023-03-21T13:06:06;0.52;;;0.35;;
61034;SDS011;46916;40.564;-7.958;2023-03-21T13:08:13;0.28;;;0.28;;
61034;SDS011;46916;40.564;-7.958;2023-03-21T13:10:17;1.48;;;1.38;;
61034;SDS011;46916;40.564;-7.958;2023-03-21T13:12:23;0.20;;;0.20;;
61034;SDS011;46916;40.564;-7.958;2023-03-21T13:14:33;0.30;;;0.30;;
61034;SDS011;46916;40.564;-7.958;2023-03-21T13:21:14;0.20;;;0.20;;
61034;SDS011;46916;40.564;-7.958;2023-03-21T13:23:35;1.95;;;1.27;;
61034;SDS011;46916;40.564;-7.958;2023-03-21T13:25:40;0.55;;;0.25;;
61034;SDS011;46916;40.564;-7.958;2023-03-21T13:27:49;0.68;;;0.68;;
61034;SDS011;46916;40.564;-7.958;2023-03-21T13:30:37;0.43;;;0.43;;
61034;SDS011;46916;40.564;-7.958;2023-03-21T13:32:22;0.35;;;0.35;;
61034;SDS011;46916;40.564;-7.958;2023-03-21T13:34:30;0.10;;;0.10;;
61034;SDS011;46916;40.564;-7.958;2023-03-21T13:36:30;0.20;;;0.20;;
61034;SDS011;46916;40.564;-7.958;2023-03-21T13:38:37;1.23;;;0.50;;
61034;SDS011;46916;40.564;-7.958;2023-03-21T13:40:50;0.45;;;0.45;;
61034;SDS011;46916;40.564;-7.958;2023-03-21T13:42:59;0.20;;;0.20;;
61034;SDS011;46916;40.564;-7.958;2023-03-21T13:45:05;0.10;;;0.10;;
61034;SDS011;46916;40.564;-7.958;2023-03-21T13:52:26;0.17;;;0.17;;
61034;SDS011;46916;40.564;-7.958;2023-03-21T14:00:44;0.63;;;0.63;;
61034;SDS011;46916;40.564;-7.958;2023-03-21T14:03:12;0.20;;;0.20;;
61034;SDS011;46916;40.564;-7.958;2023-03-21T14:05:19;0.25;;;0.20;;
61034;SDS011;46916;40.564;-7.958;2023-03-21T14:07:28;1.30;;;1.20;;
61034;SDS011;46916;40.564;-7.958;2023-03-21T14:09:37;0.52;;;0.50;;